METAR Data
IDs: Format: Raw Decoded Include TAF

Data at: 0907 UTC 23 Sep 2018

KMSO 230853Z AUTO 34005KT 10SM SCT070 OVC090 13/04 A2996 RMK AO2 SLP132 T01280039 57004 $
KMSO 230753Z AUTO 33005KT 10SM OVC085 13/04 A2996 RMK AO2 SLP131 T01280039 $
KMSO 230653Z AUTO 31004KT 10SM BKN060 OVC075 12/04 A2997 RMK AO2 SLP137 T01220044 402280067 $
KMSO 230553Z AUTO 00000KT 10SM OVC070 14/04 A2997 RMK AO2 SLP137 T01390039 10178 20128 58001 $
KMSO 230453Z AUTO 03003KT 10SM SCT080 14/04 A2998 RMK AO2 SLP144 T01390039 $
KMSO 230353Z AUTO 27003KT 10SM CLR 15/03 A2998 RMK AO2 SLP147 T01500033 $
KMSO 230253Z 27005KT 10SM CLR 15/03 A2997 RMK AO2 SLP146 T01500033 50001 $
KMSO 230153Z 27009KT 10SM CLR 17/03 A2999 RMK AO2 SLP151 T01670028 $
KMSO 230053Z 25005KT 10SM BKN100 OVC120 17/03 A2999 RMK AO2 SLP153 T01720033 $
KMSO 222353Z 33011KT 10SM BKN100 18/03 A2997 RMK AO2 SLP145 T01780033 10228 20178 53012 $
KMSO 222253Z 32014G20KT 10SM SCT120 19/03 A2996 RMK AO2 PK WND 34026/2203 SLP140 T01890033 $
KMSO 222153Z 32019G29KT 10SM CLR 21/03 A2994 RMK AO2 PK WND 34029/2149 SLP129 T02060028 $
KMSO 222053Z 34018G27KT 10SM CLR 21/03 A2993 RMK AO2 PK WND 34027/2050 SLP124 T02110028 56008 $
KMSO 221953Z 32011KT 10SM CLR 22/03 A2994 RMK AO2 SLP126 T02220028 $
KMSO 221853Z 32010KT 10SM CLR 21/03 A2995 RMK AO2 SLP127 T02110033 $
KMSO 221753Z 28006KT 10SM CLR 19/02 A2996 RMK AO2 SLP134 T01890022 10189 20072 58001 $
KMSO 221653Z 29004KT 10SM CLR 15/03 A2997 RMK AO2 SLP141 T01500028 $
KMSO 221553Z 00000KT 10SM CLR 11/04 A2997 RMK AO2 SLP142 T01110039 $
KMSO 221453Z 00000KT 10SM CLR 10/03 A2997 RMK AO2 SLP143 T01000033 51012 $
KMSO 221353Z 00000KT 10SM CLR 09/03 A2995 RMK AO2 SLP137 T00890028 $
KMSO 221253Z 29003KT 10SM CLR 08/02 A2994 RMK AO2 SLP131 T00830022 $
KMSO 221153Z 00000KT 10SM CLR 08/03 A2993 RMK AO2 SLP122 T00780028 10150 20067 53003 $
KMSO 221053Z AUTO 00000KT 10SM CLR 09/02 A2992 RMK AO2 SLP118 T00890017 $
KMSO 220953Z AUTO 00000KT 10SM CLR 11/03 A2991 RMK AO2 SLP116 T01060028 $
KMSO 220853Z AUTO 19004KT 10SM CLR 12/03 A2992 RMK AO2 SLP116 T01220028 56008 $
KMSO 220753Z AUTO 11006KT 10SM CLR 13/02 A2992 RMK AO2 SLP119 T01330022 $
KMSO 220653Z AUTO 10007KT 10SM CLR 15/02 A2993 RMK AO2 SLP123 T01500022 402500044 $
KMSO 220553Z AUTO 07003KT 10SM CLR 14/03 A2994 RMK AO2 SLP130 T01440028 10239 20133 58005 $
KMSO 220453Z AUTO 00000KT 10SM CLR 15/03 A2995 RMK AO2 SLP136 T01500028 $
KMSO 220353Z AUTO 05005KT 10SM CLR 15/02 A2995 RMK AO2 SLP141 T01500022 $
KMSO 220253Z 33004KT 10SM CLR 16/02 A2996 RMK AO2 SLP145 T01560022 55001 $
KMSO 220153Z AUTO 32005KT 10SM CLR 18/02 A2996 RMK AO2 SLP143 T01830022
KMSO 220053Z 28003KT 10SM CLR 21/03 A2996 RMK AO2 SLP142 T02060028
KMSO 212353Z 00000KT 10SM CLR 24/01 A2996 RMK AO2 SLP138 T02390011 10250 20144 56016
KMSO 212253Z VRB03KT 10SM CLR 25/01 A2997 RMK AO2 SLP138 T02500011
KMSO 212153Z 00000KT 10SM CLR 23/01 A2999 RMK AO2 SLP148 T02330006